createdAt,value
2022-08-09T00:00:59.648Z,21.35
2022-08-09T00:04:03.691Z,21.40
2022-08-09T00:06:22.936Z,21.39
2022-08-09T00:08:53.289Z,21.37
2022-08-09T00:11:58.457Z,21.34
2022-08-09T00:14:17.461Z,21.29
2022-08-09T00:16:50.742Z,21.24
2022-08-09T00:19:20.571Z,21.26
2022-08-09T00:21:55.850Z,21.22
2022-08-09T00:24:27.242Z,21.17
2022-08-09T00:26:57.349Z,21.24
2022-08-09T00:30:10.336Z,21.21
2022-08-09T00:32:35.931Z,21.10
2022-08-09T00:35:07.463Z,21.04
2022-08-09T00:37:35.966Z,21.03
2022-08-09T00:40:13.865Z,20.98
2022-08-09T00:44:11.381Z,20.98
2022-08-09T00:45:35.123Z,21.01
2022-08-09T00:48:04.431Z,20.90
2022-08-09T00:50:37.761Z,20.81
2022-08-09T00:53:10.308Z,20.79
2022-08-09T00:56:03.700Z,20.73
2022-08-09T00:58:28.015Z,20.74
2022-08-09T01:01:00.061Z,20.70
2022-08-09T01:03:45.506Z,20.60
2022-08-09T01:06:53.414Z,20.74
2022-08-09T01:09:36.622Z,20.56
2022-08-09T01:12:16.502Z,20.71
2022-08-09T01:14:57.080Z,20.59
2022-08-09T01:17:34.668Z,20.40
2022-08-09T01:20:07.248Z,20.46
2022-08-09T01:23:05.569Z,20.44
2022-08-09T01:26:03.773Z,20.41
2022-08-09T01:28:34.828Z,20.21
2022-08-09T01:31:07.293Z,20.13
2022-08-09T01:33:39.787Z,20.25
2022-08-09T01:36:13.528Z,20.06
2022-08-09T01:38:47.041Z,20.25
2022-08-09T01:41:18.469Z,20.10
2022-08-09T01:43:59.091Z,19.99
2022-08-09T01:46:32.456Z,20.09
2022-08-09T01:49:10.271Z,20.18
2022-08-09T01:51:54.322Z,20.07
2022-08-09T01:54:30.216Z,19.93
2022-08-09T01:57:08.522Z,19.88
2022-08-09T01:59:51.616Z,20.02
2022-08-09T02:02:29.900Z,19.86
2022-08-09T02:05:11.871Z,19.85
2022-08-09T02:08:41.015Z,19.66
2022-08-09T02:10:42.790Z,19.58
2022-08-09T02:13:25.857Z,19.67
2022-08-09T02:16:07.407Z,20.07
2022-08-09T02:18:43.079Z,19.78
2022-08-09T02:21:22.281Z,19.65
2022-08-09T02:23:56.558Z,19.69
2022-08-09T02:26:27.700Z,19.75
2022-08-09T02:29:00.796Z,19.90
2022-08-09T02:31:35.684Z,19.61
2022-08-09T02:34:13.637Z,19.77
2022-08-09T02:36:57.079Z,19.56
2022-08-09T02:39:40.024Z,19.53
2022-08-09T02:42:17.262Z,19.65
2022-08-09T02:44:50.477Z,19.56
2022-08-09T02:47:23.043Z,19.42
2022-08-09T02:50:01.860Z,19.38
2022-08-09T02:52:38.628Z,19.31
2022-08-09T02:55:20.821Z,19.24
2022-08-09T02:58:00.320Z,19.36
2022-08-09T03:00:58.069Z,19.39
2022-08-09T03:03:59.597Z,19.13
2022-08-09T03:06:21.533Z,19.18
2022-08-09T03:08:53.009Z,19.21
2022-08-09T03:11:29.917Z,19.29
2022-08-09T03:14:14.102Z,19.17
2022-08-09T03:16:48.100Z,19.06
2022-08-09T03:19:52.712Z,19.03
2022-08-09T03:22:12.522Z,18.95
2022-08-09T03:24:52.684Z,19.14
2022-08-09T03:27:45.015Z,19.16
2022-08-09T03:30:29.176Z,19.24
2022-08-09T03:33:05.702Z,19.04
2022-08-09T03:36:13.235Z,19.00
2022-08-09T03:38:32.809Z,18.90
2022-08-09T03:41:01.340Z,18.87
2022-08-09T03:43:32.176Z,19.00
2022-08-09T03:46:04.314Z,19.36
2022-08-09T03:48:55.253Z,19.64
2022-08-09T03:51:56.962Z,19.79
2022-08-09T03:54:17.043Z,19.69
2022-08-09T03:56:46.579Z,19.78
2022-08-09T03:59:21.085Z,19.79
2022-08-09T04:01:59.174Z,19.85
2022-08-09T04:04:36.146Z,19.93
2022-08-09T04:07:09.005Z,19.90
2022-08-09T04:09:44.455Z,19.67
2022-08-09T04:12:44.600Z,20.01
2022-08-09T04:15:17.282Z,19.89
2022-08-09T04:18:03.120Z,19.84
2022-08-09T04:20:31.584Z,19.66
2022-08-09T04:23:02.597Z,19.75
2022-08-09T04:25:38.408Z,19.60
2022-08-09T04:28:07.663Z,19.43
2022-08-09T04:30:36.119Z,19.01
2022-08-09T04:33:04.577Z,19.00
2022-08-09T04:35:33.179Z,18.94
2022-08-09T04:38:03.662Z,18.68
2022-08-09T04:40:46.230Z,18.81
2022-08-09T04:43:15.276Z,18.73
2022-08-09T04:45:53.968Z,18.72
2022-08-09T04:48:23.874Z,18.77
2022-08-09T04:51:02.045Z,18.78
2022-08-09T04:53:31.801Z,18.83
2022-08-09T04:56:00.697Z,18.85
2022-08-09T04:58:31.654Z,18.94
2022-08-09T05:01:02.039Z,19.39
2022-08-09T05:03:42.901Z,19.87
2022-08-09T05:06:21.749Z,20.22
2022-08-09T05:09:00.422Z,20.64
2022-08-09T05:11:32.488Z,20.65
2022-08-09T05:14:05.774Z,21.00
2022-08-09T05:16:58.411Z,21.22
2022-08-09T05:19:26.066Z,21.18
2022-08-09T05:22:00.309Z,21.23
2022-08-09T05:24:30.119Z,21.56
2022-08-09T05:26:58.738Z,21.84
2022-08-09T05:29:31.189Z,21.96
2022-08-09T05:32:01.229Z,21.73
2022-08-09T05:34:32.579Z,21.81
2022-08-09T05:37:06.103Z,21.92
2022-08-09T05:39:42.624Z,22.12
2022-08-09T05:42:17.211Z,22.15
2022-08-09T05:44:51.675Z,22.40
2022-08-09T05:47:21.451Z,22.48
2022-08-09T05:50:25.765Z,22.61
2022-08-09T05:52:40.510Z,22.71
2022-08-09T05:55:20.526Z,22.77
2022-08-09T05:57:55.525Z,22.99
2022-08-09T06:00:25.564Z,22.67
2022-08-09T06:02:57.252Z,22.91
2022-08-09T06:05:50.179Z,23.15
2022-08-09T06:08:19.712Z,23.46
2022-08-09T06:10:56.095Z,23.50
2022-08-09T06:13:28.658Z,23.38
2022-08-09T06:16:04.965Z,23.42
2022-08-09T06:18:34.731Z,23.31
2022-08-09T06:21:04.465Z,23.45
2022-08-09T06:23:58.383Z,23.53
2022-08-09T06:26:28.482Z,23.74
2022-08-09T06:28:59.559Z,23.69
2022-08-09T06:31:31.254Z,23.66
2022-08-09T06:34:00.240Z,23.57
2022-08-09T06:36:29.724Z,23.80
2022-08-09T06:38:58.593Z,24.04
2022-08-09T06:42:07.821Z,24.49
2022-08-09T06:44:21.469Z,24.65
2022-08-09T06:46:55.318Z,24.79
2022-08-09T06:49:44.573Z,24.75
2022-08-09T06:52:16.298Z,25.20
2022-08-09T06:54:45.406Z,25.39
2022-08-09T06:57:15.317Z,25.64
2022-08-09T07:00:48.978Z,26.00
2022-08-09T07:02:32.483Z,25.67
2022-08-09T07:05:01.950Z,25.47
2022-08-09T07:08:01.008Z,25.59
2022-08-09T07:10:29.522Z,25.29
2022-08-09T07:12:59.940Z,25.62
2022-08-09T07:16:38.680Z,25.69
2022-08-09T07:18:17.226Z,25.70
2022-08-09T07:20:47.860Z,25.43
2022-08-09T07:23:18.727Z,25.95
2022-08-09T07:25:52.134Z,26.13
2022-08-09T07:28:34.651Z,26.19
2022-08-09T07:31:05.342Z,25.91
2022-08-09T07:33:52.785Z,25.87
2022-08-09T07:36:23.038Z,26.30
2022-08-09T07:39:00.389Z,26.67
2022-08-09T07:41:32.951Z,27.40
2022-08-09T07:44:08.391Z,27.37
2022-08-09T07:46:40.360Z,28.12
2022-08-09T07:49:15.372Z,27.57
2022-08-09T07:52:04.353Z,27.96
2022-08-09T07:54:32.538Z,28.53
2022-08-09T07:57:00.986Z,28.20
2022-08-09T07:59:45.947Z,28.36
2022-08-09T08:02:24.689Z,28.48
2022-08-09T08:04:54.913Z,29.16
2022-08-09T08:08:44.013Z,28.61
2022-08-09T08:10:12.104Z,28.90
2022-08-09T08:12:45.126Z,28.76
2022-08-09T08:15:18.643Z,28.93
2022-08-09T08:17:58.460Z,29.45
2022-08-09T08:20:33.034Z,29.75
2022-08-09T08:23:16.200Z,29.77
2022-08-09T08:25:50.502Z,29.94
2022-08-09T08:28:31.964Z,30.67
2022-08-09T08:31:13.947Z,31.25
2022-08-09T08:33:53.975Z,30.96
2022-08-09T08:36:28.713Z,31.29
2022-08-09T08:38:58.748Z,31.70
2022-08-09T08:41:42.036Z,31.29
2022-08-09T08:44:27.211Z,31.33
2022-08-09T08:47:05.233Z,31.98
2022-08-09T08:49:48.419Z,31.42
2022-08-09T08:55:19.173Z,31.38
2022-08-09T08:57:56.759Z,31.13
2022-08-09T09:00:30.400Z,31.13
2022-08-09T09:03:11.511Z,30.95
2022-08-09T09:06:01.198Z,30.60
2022-08-09T09:08:40.180Z,31.41
2022-08-09T09:11:13.692Z,31.56
2022-08-09T09:13:56.469Z,30.67
2022-08-09T09:16:31.874Z,30.85
2022-08-09T09:22:34.400Z,31.05
2022-08-09T09:26:04.363Z,31.70
2022-08-09T09:28:06.184Z,31.84
2022-08-09T09:30:54.023Z,30.88
2022-08-09T09:33:23.790Z,30.13
2022-08-09T09:36:02.072Z,31.43
2022-08-09T09:38:47.247Z,31.73
2022-08-09T09:41:33.198Z,31.66
2022-08-09T09:44:13.445Z,31.46
2022-08-09T09:46:58.759Z,31.74
2022-08-09T09:49:50.044Z,31.72
2022-08-09T09:52:36.945Z,32.22
2022-08-09T09:55:24.191Z,32.49
2022-08-09T09:58:00.640Z,32.38
2022-08-09T10:00:33.705Z,32.54
2022-08-09T10:03:09.364Z,32.26
2022-08-09T10:06:04.691Z,31.90
2022-08-09T10:08:54.280Z,31.54
2022-08-09T10:12:12.434Z,31.47
2022-08-09T10:14:30.353Z,31.28
2022-08-09T10:17:39.971Z,31.75
2022-08-09T10:19:52.956Z,31.76
2022-08-09T10:22:33.489Z,31.58
2022-08-09T10:25:12.293Z,31.83
2022-08-09T10:27:45.079Z,31.74
2022-08-09T10:33:44.804Z,31.00
2022-08-09T10:36:04.392Z,30.75
2022-08-09T10:38:54.405Z,30.77
2022-08-09T10:41:23.285Z,31.63
2022-08-09T10:43:59.260Z,30.69
2022-08-09T10:46:57.589Z,31.28
2022-08-09T10:49:51.035Z,31.19
2022-08-09T10:52:44.758Z,31.09
2022-08-09T10:55:24.967Z,31.27
2022-08-09T10:58:00.220Z,31.13
2022-08-09T11:00:51.023Z,31.52
2022-08-09T11:03:50.042Z,31.81
2022-08-09T11:06:22.906Z,32.01
2022-08-09T11:08:53.868Z,31.73
2022-08-09T11:11:24.122Z,32.23
2022-08-09T11:14:32.211Z,32.09
2022-08-09T11:17:01.038Z,32.45
2022-08-09T11:20:10.126Z,31.92
2022-08-09T11:23:02.997Z,31.40
2022-08-09T11:25:49.460Z,31.42
2022-08-09T11:28:56.745Z,31.97
2022-08-09T11:31:52.654Z,31.34
2022-08-09T11:34:33.533Z,31.32
2022-08-09T11:37:07.455Z,31.75
2022-08-09T11:40:04.835Z,31.25
2022-08-09T11:42:46.972Z,31.18
2022-08-09T11:45:42.431Z,30.75
2022-08-09T11:48:27.025Z,31.02
2022-08-09T11:52:56.660Z,30.83
2022-08-09T11:54:27.554Z,30.57
2022-08-09T11:57:47.865Z,30.09
2022-08-09T12:00:31.187Z,30.18
2022-08-09T12:03:09.903Z,30.13
2022-08-09T12:05:54.516Z,29.87
2022-08-09T12:08:25.237Z,29.45
2022-08-09T12:10:57.554Z,29.80
2022-08-09T12:14:07.803Z,30.04
2022-08-09T12:16:37.733Z,30.19
2022-08-09T12:19:09.560Z,30.13
2022-08-09T12:21:50.796Z,30.16
2022-08-09T12:24:25.757Z,30.20
2022-08-09T12:29:11.582Z,30.20
2022-08-09T12:30:01.921Z,30.30
2022-08-09T12:32:48.442Z,30.25
2022-08-09T12:35:21.753Z,30.17
2022-08-09T12:37:53.737Z,30.18
2022-08-09T12:40:26.888Z,29.63
2022-08-09T12:42:57.594Z,29.73
2022-08-09T12:45:33.643Z,29.62
2022-08-09T12:48:20.035Z,29.36
2022-08-09T12:50:59.345Z,29.74
2022-08-09T12:53:36.995Z,29.79
2022-08-09T12:56:34.852Z,29.81
2022-08-09T12:59:11.908Z,29.50
2022-08-09T13:01:48.896Z,29.58
2022-08-09T13:04:37.017Z,29.55
2022-08-09T13:07:16.530Z,29.27
2022-08-09T13:09:55.052Z,29.42
2022-08-09T13:12:29.284Z,29.58
2022-08-09T13:15:07.129Z,29.60
2022-08-09T13:18:03.264Z,29.75
2022-08-09T13:20:36.978Z,29.37
2022-08-09T13:24:16.312Z,29.41
2022-08-09T13:25:56.429Z,29.59
2022-08-09T13:28:35.435Z,28.97
2022-08-09T13:32:13.653Z,29.04
2022-08-09T13:33:59.338Z,28.91
2022-08-09T13:36:42.424Z,29.39
2022-08-09T13:41:50.735Z,29.64
2022-08-09T13:42:04.585Z,29.38
2022-08-09T13:44:34.811Z,29.31
2022-08-09T13:47:27.452Z,28.99
2022-08-09T13:49:55.997Z,28.71
2022-08-09T13:52:26.603Z,28.87
2022-08-09T13:55:00.571Z,29.22
2022-08-09T13:57:39.709Z,28.82
2022-08-09T14:00:15.532Z,29.46
2022-08-09T14:03:03.042Z,29.48
2022-08-09T14:05:57.086Z,29.27
2022-08-09T14:08:26.866Z,29.26
2022-08-09T14:10:55.952Z,29.41
2022-08-09T14:14:15.175Z,29.51
2022-08-09T14:16:17.176Z,29.62
2022-08-09T14:18:51.591Z,29.45
2022-08-09T14:21:22.703Z,29.53
2022-08-09T14:23:57.303Z,29.69
2022-08-09T14:26:32.773Z,29.01
2022-08-09T14:29:08.342Z,29.39
2022-08-09T14:31:56.207Z,29.18
2022-08-09T14:34:31.892Z,29.38
2022-08-09T14:37:06.791Z,29.22
2022-08-09T14:39:46.438Z,29.54
2022-08-09T14:42:30.976Z,29.78
2022-08-09T14:46:40.481Z,29.38
2022-08-09T14:47:57.821Z,29.60
2022-08-09T14:50:29.532Z,29.26
2022-08-09T14:53:00.239Z,29.32
2022-08-09T14:55:32.062Z,29.41
2022-08-09T14:58:03.563Z,29.56
2022-08-09T15:00:36.220Z,29.56
2022-08-09T15:03:08.779Z,29.41
2022-08-09T15:05:38.350Z,29.74
2022-08-09T15:08:10.278Z,29.81
2022-08-09T15:10:39.881Z,29.78
2022-08-09T15:13:09.001Z,29.96
2022-08-09T15:15:39.740Z,29.21
2022-08-09T15:18:14.104Z,29.56
2022-08-09T15:21:54.684Z,29.53
2022-08-09T15:24:01.647Z,29.73
2022-08-09T15:26:31.450Z,29.85
2022-08-09T15:29:04.829Z,29.76
2022-08-09T15:31:40.570Z,29.79
2022-08-09T15:34:32.371Z,29.75
2022-08-09T15:37:04.252Z,29.82
2022-08-09T15:39:34.582Z,29.57
2022-08-09T15:42:03.975Z,29.47
2022-08-09T15:44:32.429Z,29.25
2022-08-09T15:47:03.674Z,29.23
2022-08-09T15:49:33.818Z,28.86
2022-08-09T15:52:05.813Z,28.88
2022-08-09T15:54:46.204Z,29.26
2022-08-09T15:57:19.057Z,28.96
2022-08-09T16:00:05.155Z,28.65
2022-08-09T16:02:35.282Z,28.81
2022-08-09T16:05:04.425Z,29.04
2022-08-09T16:07:39.477Z,29.42
2022-08-09T16:10:38.448Z,29.37
2022-08-09T16:13:03.913Z,29.45
2022-08-09T16:16:04.486Z,29.45
2022-08-09T16:18:22.460Z,29.19
2022-08-09T16:20:51.422Z,28.76
2022-08-09T16:23:21.661Z,29.04
2022-08-09T16:25:50.209Z,29.29
2022-08-09T16:28:18.719Z,29.49
2022-08-09T16:30:58.936Z,29.53
2022-08-09T16:33:30.922Z,29.60
2022-08-09T16:36:11.769Z,29.46
2022-08-09T16:38:45.979Z,29.05
2022-08-09T16:41:24.714Z,29.38
2022-08-09T16:44:09.068Z,29.20
2022-08-09T16:46:37.559Z,29.31
2022-08-09T16:50:28.391Z,29.19
2022-08-09T16:52:13.761Z,28.77
2022-08-09T16:54:42.324Z,29.03
2022-08-09T16:57:11.376Z,28.70
2022-08-09T16:59:44.101Z,28.34
2022-08-09T17:02:23.120Z,28.70
2022-08-09T17:04:53.159Z,28.97
2022-08-09T17:08:44.991Z,29.00
2022-08-09T17:10:14.640Z,28.39
2022-08-09T17:12:43.927Z,28.77
2022-08-09T17:15:30.605Z,28.72
2022-08-09T17:18:00.643Z,28.57
2022-08-09T17:20:37.441Z,28.61
2022-08-09T17:23:10.499Z,28.50
2022-08-09T17:25:45.088Z,28.67
2022-08-09T17:28:21.394Z,28.76
2022-08-09T17:30:51.833Z,28.76
2022-08-09T17:33:22.737Z,28.73
2022-08-09T17:35:52.961Z,28.73
2022-08-09T17:38:30.446Z,28.72
2022-08-09T17:41:02.772Z,28.57
2022-08-09T17:43:35.778Z,28.48
2022-08-09T17:46:09.012Z,28.29
2022-08-09T17:48:51.595Z,28.35
2022-08-09T17:51:23.149Z,28.31
2022-08-09T17:53:55.044Z,28.29
2022-08-09T17:56:28.485Z,28.20
2022-08-09T17:59:00.003Z,28.10
2022-08-09T18:01:40.718Z,28.16
2022-08-09T18:04:19.576Z,28.16
2022-08-09T18:06:55.225Z,27.96
2022-08-09T18:09:35.745Z,27.93
2022-08-09T18:12:17.304Z,28.07
2022-08-09T18:14:54.430Z,27.90
2022-08-09T18:18:03.366Z,27.80
2022-08-09T18:20:59.880Z,27.74
2022-08-09T18:23:08.072Z,27.71
2022-08-09T18:25:57.560Z,27.65
2022-08-09T18:30:41.261Z,27.64
2022-08-09T18:31:19.273Z,27.47
2022-08-09T18:34:01.067Z,27.49
2022-08-09T18:36:32.510Z,27.50
2022-08-09T18:39:06.613Z,27.38
2022-08-09T18:41:36.927Z,27.28
2022-08-09T18:44:13.335Z,27.33
2022-08-09T18:46:49.689Z,27.29
2022-08-09T18:49:43.341Z,27.22
2022-08-09T18:52:18.850Z,27.14
2022-08-09T18:54:55.203Z,27.13
2022-08-09T18:57:38.704Z,27.08
2022-08-09T19:00:19.173Z,27.03
2022-08-09T19:02:51.230Z,27.00
2022-08-09T19:06:01.860Z,26.92
2022-08-09T19:08:14.155Z,26.93
2022-08-09T19:10:49.046Z,26.87
2022-08-09T19:13:22.831Z,26.86
2022-08-09T19:16:07.208Z,26.78
2022-08-09T19:18:42.271Z,26.74
2022-08-09T19:21:12.822Z,26.67
2022-08-09T19:24:37.881Z,26.65
2022-08-09T19:26:35.008Z,26.62
2022-08-09T19:29:09.644Z,26.61
2022-08-09T19:31:49.409Z,26.57
2022-08-09T19:34:23.052Z,26.57
2022-08-09T19:36:53.956Z,26.55
2022-08-09T19:39:43.726Z,26.54
2022-08-09T19:42:19.145Z,26.49
2022-08-09T19:44:51.220Z,26.47
2022-08-09T19:47:23.213Z,26.45
2022-08-09T19:50:09.219Z,26.36
2022-08-09T19:52:49.618Z,26.31
2022-08-09T19:55:30.454Z,26.27
2022-08-09T19:58:16.314Z,26.24
2022-08-09T20:00:46.829Z,26.20
2022-08-09T20:04:10.798Z,26.15
2022-08-09T20:06:22.499Z,26.09
2022-08-09T20:08:56.523Z,26.04
2022-08-09T20:11:26.832Z,26.00
2022-08-09T20:13:57.167Z,25.97
2022-08-09T20:16:33.265Z,25.91
2022-08-09T20:19:46.364Z,25.86
2022-08-09T20:21:59.868Z,25.82
2022-08-09T20:24:33.880Z,25.77
2022-08-09T20:27:08.000Z,25.67
2022-08-09T20:29:39.482Z,25.64
2022-08-09T20:32:29.116Z,25.54
2022-08-09T20:35:01.527Z,25.53
2022-08-09T20:38:19.518Z,25.46
2022-08-09T20:40:27.063Z,25.39
2022-08-09T20:43:00.039Z,25.29
2022-08-09T20:46:00.492Z,25.23
2022-08-09T20:48:31.919Z,25.17
2022-08-09T20:51:01.308Z,25.16
2022-08-09T20:53:37.058Z,25.10
2022-08-09T20:56:21.183Z,25.06
2022-08-09T20:58:57.950Z,25.03
2022-08-09T21:01:34.033Z,25.04
2022-08-09T21:05:56.103Z,24.97
2022-08-09T21:07:11.834Z,24.96
2022-08-09T21:09:55.448Z,24.86
2022-08-09T21:12:32.187Z,24.81
2022-08-09T21:15:14.935Z,24.77
2022-08-09T21:18:23.475Z,24.73
2022-08-09T21:20:35.785Z,24.63
2022-08-09T21:23:04.723Z,24.57
2022-08-09T21:25:56.101Z,24.55
2022-08-09T21:28:34.105Z,24.44
2022-08-09T21:31:17.857Z,24.48
2022-08-09T21:33:52.822Z,24.40
2022-08-09T21:36:28.861Z,24.36
2022-08-09T21:38:59.554Z,24.34
2022-08-09T21:42:05.006Z,24.30
2022-08-09T21:44:34.241Z,24.21
2022-08-09T21:47:08.983Z,24.17
2022-08-09T21:49:42.481Z,24.10
2022-08-09T21:52:17.551Z,24.03
2022-08-09T21:54:50.860Z,24.02
2022-08-09T21:57:38.611Z,23.93
2022-08-09T22:00:25.461Z,23.87
2022-08-09T22:02:58.383Z,23.82
2022-08-09T22:05:37.259Z,23.75
2022-08-09T22:08:13.044Z,23.71
2022-08-09T22:11:50.563Z,23.69
2022-08-09T22:13:34.533Z,23.64
2022-08-09T22:16:07.768Z,23.63
2022-08-09T22:18:38.005Z,23.60
2022-08-09T22:21:09.984Z,23.54
2022-08-09T22:24:01.113Z,23.44
2022-08-09T22:26:35.464Z,23.34
2022-08-09T22:29:09.279Z,23.28
2022-08-09T22:31:50.302Z,23.24
2022-08-09T22:34:25.971Z,23.28
2022-08-09T22:36:56.920Z,23.19
2022-08-09T22:39:56.176Z,23.14
2022-08-09T22:42:21.244Z,23.18
2022-08-09T22:48:06.161Z,23.17
2022-08-09T22:48:15.226Z,23.08
2022-08-09T22:50:31.542Z,23.04
2022-08-09T22:53:03.484Z,23.03
2022-08-09T22:55:39.781Z,22.94
2022-08-09T22:58:32.438Z,22.88
2022-08-09T23:01:03.369Z,22.86
2022-08-09T23:04:05.469Z,22.81
2022-08-09T23:06:35.816Z,22.82
2022-08-09T23:09:06.744Z,22.76
2022-08-09T23:11:35.690Z,22.74
2022-08-09T23:14:10.002Z,22.73
2022-08-09T23:16:45.726Z,22.66
2022-08-09T23:19:14.351Z,22.63
2022-08-09T23:21:42.831Z,22.58
2022-08-09T23:24:13.017Z,22.60
2022-08-09T23:26:41.780Z,22.51
2022-08-09T23:29:13.932Z,22.45
2022-08-09T23:31:42.858Z,22.47
2022-08-09T23:34:11.538Z,22.40
2022-08-09T23:36:40.103Z,22.37
2022-08-09T23:39:09.342Z,22.36
2022-08-09T23:41:39.155Z,22.31
2022-08-09T23:44:07.594Z,22.30
2022-08-09T23:46:36.047Z,22.30
2022-08-09T23:49:05.285Z,22.25
2022-08-09T23:51:33.818Z,22.29
2022-08-09T23:54:03.422Z,22.27
2022-08-09T23:56:52.541Z,22.21
2022-08-09T23:59:24.639Z,22.13
